KMJX/MJX METAR and TAF weather

Enter ICAO airport designator
Station Type Date Time Source
KMJX METAR 2020/05/29 19:56 UTC NOAA

KMJX 291956Z AUTO 17014G20KT 10SM BKN030 BKN036 28/22 A2993 RMK AO2 SLP139 T02830217


Station Type Date Time Source
KMJX Decoded METAR 2020/05/29 19:56 UTC NOAA

Station name not available
May 29, 2020 - 03:56 PM EDT / 2020.05.29 1956 UTC
Wind: from the S (170 degrees) at 16 MPH (14 KT) gusting to 23 MPH (20 KT):0
Visibility: 10 mile(s):0
Sky conditions: mostly cloudy
Temperature: 82.9 F (28.3 C)
Dew Point: 71.1 F (21.7 C)
Relative Humidity: 67%
Pressure (altimeter): 29.93 in. Hg (1013 hPa)
ob: KMJX 291956Z AUTO 17014G20KT 10SM BKN030 BKN036 28/22 A2993 RMK AO2 SLP139 T02830217
cycle: 20

Station Type Date Time Source
KMJX TAF UTC NOAA

Error!

Example: see airport list